sensor_id;sensor_type;location;lat;lon;timestamp;temperature;humidity
25440;DHT22;13365;52.208;5.488;2023-04-03T00:01:54;5.70;95.70
25440;DHT22;13365;52.208;5.488;2023-04-03T00:04:20;5.80;95.60
25440;DHT22;13365;52.208;5.488;2023-04-03T00:06:45;5.80;95.50
25440;DHT22;13365;52.208;5.488;2023-04-03T00:09:11;5.80;95.70
25440;DHT22;13365;52.208;5.488;2023-04-03T00:11:36;5.80;95.40
25440;DHT22;13365;52.208;5.488;2023-04-03T00:14:02;5.80;95.50
25440;DHT22;13365;52.208;5.488;2023-04-03T00:16:27;5.90;95.30
25440;DHT22;13365;52.208;5.488;2023-04-03T00:18:53;5.90;95.30
25440;DHT22;13365;52.208;5.488;2023-04-03T00:21:19;5.90;95.30
25440;DHT22;13365;52.208;5.488;2023-04-03T00:23:45;6.00;95.20
25440;DHT22;13365;52.208;5.488;2023-04-03T00:26:10;6.00;95.10
25440;DHT22;13365;52.208;5.488;2023-04-03T00:28:36;6.10;95.10
25440;DHT22;13365;52.208;5.488;2023-04-03T00:31:01;6.20;95.00
25440;DHT22;13365;52.208;5.488;2023-04-03T00:33:27;6.20;94.80
25440;DHT22;13365;52.208;5.488;2023-04-03T00:35:52;6.30;94.60
25440;DHT22;13365;52.208;5.488;2023-04-03T00:38:18;6.30;94.50
25440;DHT22;13365;52.208;5.488;2023-04-03T00:40:46;6.30;94.40
25440;DHT22;13365;52.208;5.488;2023-04-03T00:43:23;6.30;94.60
25440;DHT22;13365;52.208;5.488;2023-04-03T00:45:52;6.10;94.60
25440;DHT22;13365;52.208;5.488;2023-04-03T00:48:25;6.00;94.90
25440;DHT22;13365;52.208;5.488;2023-04-03T00:50:51;5.80;95.40
25440;DHT22;13365;52.208;5.488;2023-04-03T00:53:20;5.70;95.70
25440;DHT22;13365;52.208;5.488;2023-04-03T00:55:47;5.80;95.90
25440;DHT22;13365;52.208;5.488;2023-04-03T00:58:14;5.80;96.00
25440;DHT22;13365;52.208;5.488;2023-04-03T01:00:43;5.80;96.00
25440;DHT22;13365;52.208;5.488;2023-04-03T01:03:09;5.80;96.10
25440;DHT22;13365;52.208;5.488;2023-04-03T01:05:35;5.70;96.40
25440;DHT22;13365;52.208;5.488;2023-04-03T01:08:01;5.80;96.20
25440;DHT22;13365;52.208;5.488;2023-04-03T01:10:27;5.80;96.50
25440;DHT22;13365;52.208;5.488;2023-04-03T01:12:52;5.80;96.40
25440;DHT22;13365;52.208;5.488;2023-04-03T01:15:24;5.90;96.40
25440;DHT22;13365;52.208;5.488;2023-04-03T01:17:58;6.00;96.30
25440;DHT22;13365;52.208;5.488;2023-04-03T01:25:37;5.80;96.70
25440;DHT22;13365;52.208;5.488;2023-04-03T01:28:04;5.80;96.80
25440;DHT22;13365;52.208;5.488;2023-04-03T01:30:34;6.00;96.60
25440;DHT22;13365;52.208;5.488;2023-04-03T01:33:01;6.10;96.40
25440;DHT22;13365;52.208;5.488;2023-04-03T01:35:27;6.10;96.20
25440;DHT22;13365;52.208;5.488;2023-04-03T01:37:52;6.00;96.20
25440;DHT22;13365;52.208;5.488;2023-04-03T01:40:19;6.00;96.30
25440;DHT22;13365;52.208;5.488;2023-04-03T01:42:45;6.10;96.40
25440;DHT22;13365;52.208;5.488;2023-04-03T01:45:10;6.30;96.20
25440;DHT22;13365;52.208;5.488;2023-04-03T01:47:36;6.30;95.80
25440;DHT22;13365;52.208;5.488;2023-04-03T01:50:02;6.30;96.00
25440;DHT22;13365;52.208;5.488;2023-04-03T01:52:27;6.30;96.00
25440;DHT22;13365;52.208;5.488;2023-04-03T01:54:53;6.20;96.20
25440;DHT22;13365;52.208;5.488;2023-04-03T01:57:18;6.20;96.40
25440;DHT22;13365;52.208;5.488;2023-04-03T01:59:44;6.30;96.30
25440;DHT22;13365;52.208;5.488;2023-04-03T02:02:10;6.20;96.20
25440;DHT22;13365;52.208;5.488;2023-04-03T02:04:37;6.30;96.30
25440;DHT22;13365;52.208;5.488;2023-04-03T02:07:03;6.30;96.20
25440;DHT22;13365;52.208;5.488;2023-04-03T02:09:28;6.30;96.60
25440;DHT22;13365;52.208;5.488;2023-04-03T02:11:54;6.30;96.30
25440;DHT22;13365;52.208;5.488;2023-04-03T02:14:20;6.20;96.40
25440;DHT22;13365;52.208;5.488;2023-04-03T02:16:47;6.30;96.60
25440;DHT22;13365;52.208;5.488;2023-04-03T02:19:12;6.20;96.70
25440;DHT22;13365;52.208;5.488;2023-04-03T02:21:38;6.10;97.00
25440;DHT22;13365;52.208;5.488;2023-04-03T02:24:03;6.20;96.90
25440;DHT22;13365;52.208;5.488;2023-04-03T02:26:29;6.30;96.80
25440;DHT22;13365;52.208;5.488;2023-04-03T02:28:55;6.10;97.00
25440;DHT22;13365;52.208;5.488;2023-04-03T02:31:20;6.10;97.10
25440;DHT22;13365;52.208;5.488;2023-04-03T02:33:46;6.10;97.00
25440;DHT22;13365;52.208;5.488;2023-04-03T02:36:11;6.10;97.20
25440;DHT22;13365;52.208;5.488;2023-04-03T02:38:37;6.10;97.30
25440;DHT22;13365;52.208;5.488;2023-04-03T02:41:08;6.10;97.30
25440;DHT22;13365;52.208;5.488;2023-04-03T02:43:34;5.80;97.70
25440;DHT22;13365;52.208;5.488;2023-04-03T02:46:00;5.90;98.30
25440;DHT22;13365;52.208;5.488;2023-04-03T02:48:26;5.90;98.40
25440;DHT22;13365;52.208;5.488;2023-04-03T02:50:51;6.00;97.90
25440;DHT22;13365;52.208;5.488;2023-04-03T02:53:17;5.90;98.20
25440;DHT22;13365;52.208;5.488;2023-04-03T02:55:44;5.80;98.40
25440;DHT22;13365;52.208;5.488;2023-04-03T02:58:10;5.70;98.70
25440;DHT22;13365;52.208;5.488;2023-04-03T03:00:36;5.70;98.70
25440;DHT22;13365;52.208;5.488;2023-04-03T03:03:02;5.70;98.80
25440;DHT22;13365;52.208;5.488;2023-04-03T03:05:28;5.60;99.20
25440;DHT22;13365;52.208;5.488;2023-04-03T03:07:54;5.50;99.40
25440;DHT22;13365;52.208;5.488;2023-04-03T03:10:20;5.50;99.90
25440;DHT22;13365;52.208;5.488;2023-04-03T03:12:45;5.50;99.70
25440;DHT22;13365;52.208;5.488;2023-04-03T03:15:11;5.60;99.60
25440;DHT22;13365;52.208;5.488;2023-04-03T03:17:37;5.60;99.70
25440;DHT22;13365;52.208;5.488;2023-04-03T03:20:06;5.60;99.80
25440;DHT22;13365;52.208;5.488;2023-04-03T03:22:33;5.50;99.90
25440;DHT22;13365;52.208;5.488;2023-04-03T03:24:59;5.40;99.90
25440;DHT22;13365;52.208;5.488;2023-04-03T03:27:24;5.40;99.90
25440;DHT22;13365;52.208;5.488;2023-04-03T03:29:50;5.50;99.90
25440;DHT22;13365;52.208;5.488;2023-04-03T03:32:15;5.40;99.90
25440;DHT22;13365;52.208;5.488;2023-04-03T03:34:41;5.30;99.90
25440;DHT22;13365;52.208;5.488;2023-04-03T03:37:07;5.40;99.90
25440;DHT22;13365;52.208;5.488;2023-04-03T03:39:32;5.60;99.90
25440;DHT22;13365;52.208;5.488;2023-04-03T03:41:58;5.50;99.90
25440;DHT22;13365;52.208;5.488;2023-04-03T03:44:23;5.60;99.90
25440;DHT22;13365;52.208;5.488;2023-04-03T03:46:49;5.60;99.90
25440;DHT22;13365;52.208;5.488;2023-04-03T03:49:15;5.60;99.90
25440;DHT22;13365;52.208;5.488;2023-04-03T03:51:40;5.60;99.90
25440;DHT22;13365;52.208;5.488;2023-04-03T03:54:06;5.70;99.70
25440;DHT22;13365;52.208;5.488;2023-04-03T03:56:33;5.70;99.50
25440;DHT22;13365;52.208;5.488;2023-04-03T03:58:59;5.60;99.70
25440;DHT22;13365;52.208;5.488;2023-04-03T04:01:24;5.60;99.70
25440;DHT22;13365;52.208;5.488;2023-04-03T04:03:50;5.50;99.90
25440;DHT22;13365;52.208;5.488;2023-04-03T04:06:16;5.30;99.90
25440;DHT22;13365;52.208;5.488;2023-04-03T04:08:42;5.20;99.90
25440;DHT22;13365;52.208;5.488;2023-04-03T04:11:08;5.20;99.90
25440;DHT22;13365;52.208;5.488;2023-04-03T04:13:34;5.00;99.90
25440;DHT22;13365;52.208;5.488;2023-04-03T04:16:00;5.00;99.90
25440;DHT22;13365;52.208;5.488;2023-04-03T04:18:25;4.90;99.90
25440;DHT22;13365;52.208;5.488;2023-04-03T04:20:51;5.00;99.90
25440;DHT22;13365;52.208;5.488;2023-04-03T04:23:18;5.00;99.90
25440;DHT22;13365;52.208;5.488;2023-04-03T04:25:48;5.10;99.90
25440;DHT22;13365;52.208;5.488;2023-04-03T04:28:14;5.10;99.90
25440;DHT22;13365;52.208;5.488;2023-04-03T04:30:40;5.20;99.90
25440;DHT22;13365;52.208;5.488;2023-04-03T04:33:05;5.40;99.90
25440;DHT22;13365;52.208;5.488;2023-04-03T04:35:32;5.20;99.90
25440;DHT22;13365;52.208;5.488;2023-04-03T04:37:58;5.10;99.90
25440;DHT22;13365;52.208;5.488;2023-04-03T04:40:23;5.10;99.90
25440;DHT22;13365;52.208;5.488;2023-04-03T04:42:51;5.10;99.90
25440;DHT22;13365;52.208;5.488;2023-04-03T04:45:17;5.10;99.90
25440;DHT22;13365;52.208;5.488;2023-04-03T04:47:43;5.20;99.90
25440;DHT22;13365;52.208;5.488;2023-04-03T04:50:09;5.20;99.90
25440;DHT22;13365;52.208;5.488;2023-04-03T04:52:35;5.20;99.90
25440;DHT22;13365;52.208;5.488;2023-04-03T04:55:00;5.20;99.90
25440;DHT22;13365;52.208;5.488;2023-04-03T04:57:26;5.40;99.90
25440;DHT22;13365;52.208;5.488;2023-04-03T04:59:51;5.30;99.90
25440;DHT22;13365;52.208;5.488;2023-04-03T05:02:17;5.10;99.90
25440;DHT22;13365;52.208;5.488;2023-04-03T05:04:46;5.10;99.90
25440;DHT22;13365;52.208;5.488;2023-04-03T05:07:11;5.00;99.90
25440;DHT22;13365;52.208;5.488;2023-04-03T05:09:37;4.90;99.90
25440;DHT22;13365;52.208;5.488;2023-04-03T05:12:02;4.80;99.90
25440;DHT22;13365;52.208;5.488;2023-04-03T05:14:28;4.70;99.90
25440;DHT22;13365;52.208;5.488;2023-04-03T05:16:54;4.60;99.90
25440;DHT22;13365;52.208;5.488;2023-04-03T05:19:22;4.70;99.90
25440;DHT22;13365;52.208;5.488;2023-04-03T05:21:48;4.70;99.90
25440;DHT22;13365;52.208;5.488;2023-04-03T05:24:14;4.70;99.90
25440;DHT22;13365;52.208;5.488;2023-04-03T05:26:41;4.70;99.90
25440;DHT22;13365;52.208;5.488;2023-04-03T05:29:07;4.60;99.90
25440;DHT22;13365;52.208;5.488;2023-04-03T05:31:32;4.80;99.90
25440;DHT22;13365;52.208;5.488;2023-04-03T05:33:58;4.90;99.90
25440;DHT22;13365;52.208;5.488;2023-04-03T05:36:24;4.90;99.90
25440;DHT22;13365;52.208;5.488;2023-04-03T05:38:51;5.00;99.90
25440;DHT22;13365;52.208;5.488;2023-04-03T05:41:16;4.90;99.90
25440;DHT22;13365;52.208;5.488;2023-04-03T05:43:42;5.00;99.90
25440;DHT22;13365;52.208;5.488;2023-04-03T05:46:13;4.90;99.90
25440;DHT22;13365;52.208;5.488;2023-04-03T05:48:38;4.90;99.90
25440;DHT22;13365;52.208;5.488;2023-04-03T05:51:06;4.90;99.90
25440;DHT22;13365;52.208;5.488;2023-04-03T05:53:34;5.00;99.90
25440;DHT22;13365;52.208;5.488;2023-04-03T05:56:00;5.00;99.90
25440;DHT22;13365;52.208;5.488;2023-04-03T05:58:26;5.00;99.90
25440;DHT22;13365;52.208;5.488;2023-04-03T06:00:51;4.80;99.90
25440;DHT22;13365;52.208;5.488;2023-04-03T06:03:17;4.70;99.90
25440;DHT22;13365;52.208;5.488;2023-04-03T06:05:43;4.70;99.90
25440;DHT22;13365;52.208;5.488;2023-04-03T06:08:08;4.80;99.90
25440;DHT22;13365;52.208;5.488;2023-04-03T06:10:34;4.80;99.90
25440;DHT22;13365;52.208;5.488;2023-04-03T06:13:00;5.00;99.90
25440;DHT22;13365;52.208;5.488;2023-04-03T06:15:26;5.20;99.90
25440;DHT22;13365;52.208;5.488;2023-04-03T06:17:52;5.40;99.90
25440;DHT22;13365;52.208;5.488;2023-04-03T06:20:18;5.40;99.90
25440;DHT22;13365;52.208;5.488;2023-04-03T06:22:43;5.40;99.90
25440;DHT22;13365;52.208;5.488;2023-04-03T06:25:09;5.30;99.90
25440;DHT22;13365;52.208;5.488;2023-04-03T06:27:35;5.10;99.90
25440;DHT22;13365;52.208;5.488;2023-04-03T06:30:00;5.20;99.90
25440;DHT22;13365;52.208;5.488;2023-04-03T06:32:26;5.40;99.90
25440;DHT22;13365;52.208;5.488;2023-04-03T06:34:52;5.70;99.90
25440;DHT22;13365;52.208;5.488;2023-04-03T06:37:20;5.70;99.90
25440;DHT22;13365;52.208;5.488;2023-04-03T06:39:47;5.70;99.90
25440;DHT22;13365;52.208;5.488;2023-04-03T06:42:12;5.60;99.90
25440;DHT22;13365;52.208;5.488;2023-04-03T06:44:38;5.80;99.90
25440;DHT22;13365;52.208;5.488;2023-04-03T06:47:04;5.90;99.90
25440;DHT22;13365;52.208;5.488;2023-04-03T06:49:30;6.00;99.90
25440;DHT22;13365;52.208;5.488;2023-04-03T06:51:56;6.00;99.90
25440;DHT22;13365;52.208;5.488;2023-04-03T06:54:21;5.90;99.90
25440;DHT22;13365;52.208;5.488;2023-04-03T06:56:47;6.00;99.90
25440;DHT22;13365;52.208;5.488;2023-04-03T06:59:13;6.10;99.90
25440;DHT22;13365;52.208;5.488;2023-04-03T07:01:41;6.30;99.90
25440;DHT22;13365;52.208;5.488;2023-04-03T07:04:08;6.30;99.80
25440;DHT22;13365;52.208;5.488;2023-04-03T07:06:34;6.30;99.90
25440;DHT22;13365;52.208;5.488;2023-04-03T07:09:00;6.60;99.60
25440;DHT22;13365;52.208;5.488;2023-04-03T07:11:26;6.90;99.40
25440;DHT22;13365;52.208;5.488;2023-04-03T07:13:52;7.20;98.80
25440;DHT22;13365;52.208;5.488;2023-04-03T07:16:19;7.50;97.70
25440;DHT22;13365;52.208;5.488;2023-04-03T07:18:45;7.20;97.20
25440;DHT22;13365;52.208;5.488;2023-04-03T07:21:12;7.30;97.50
25440;DHT22;13365;52.208;5.488;2023-04-03T07:23:38;7.60;97.10
25440;DHT22;13365;52.208;5.488;2023-04-03T07:26:03;7.50;95.60
25440;DHT22;13365;52.208;5.488;2023-04-03T07:28:29;7.30;96.10
25440;DHT22;13365;52.208;5.488;2023-04-03T07:31:04;7.30;96.40
25440;DHT22;13365;52.208;5.488;2023-04-03T07:33:31;7.50;97.20
25440;DHT22;13365;52.208;5.488;2023-04-03T07:35:57;7.70;96.40
25440;DHT22;13365;52.208;5.488;2023-04-03T07:38:23;7.80;95.80
25440;DHT22;13365;52.208;5.488;2023-04-03T07:40:49;7.70;94.80
25440;DHT22;13365;52.208;5.488;2023-04-03T07:43:16;7.50;94.00
25440;DHT22;13365;52.208;5.488;2023-04-03T07:45:42;7.60;95.90
25440;DHT22;13365;52.208;5.488;2023-04-03T07:48:09;7.90;95.00
25440;DHT22;13365;52.208;5.488;2023-04-03T07:50:35;7.90;93.40
25440;DHT22;13365;52.208;5.488;2023-04-03T07:53:01;8.20;94.20
25440;DHT22;13365;52.208;5.488;2023-04-03T07:55:28;8.30;91.90
25440;DHT22;13365;52.208;5.488;2023-04-03T07:57:53;8.10;92.20
25440;DHT22;13365;52.208;5.488;2023-04-03T08:00:19;8.10;92.20
25440;DHT22;13365;52.208;5.488;2023-04-03T08:02:45;8.20;92.00
25440;DHT22;13365;52.208;5.488;2023-04-03T08:05:17;8.40;91.80
25440;DHT22;13365;52.208;5.488;2023-04-03T08:07:42;8.30;90.60
25440;DHT22;13365;52.208;5.488;2023-04-03T08:10:08;8.60;91.40
25440;DHT22;13365;52.208;5.488;2023-04-03T08:12:34;9.10;91.70
25440;DHT22;13365;52.208;5.488;2023-04-03T08:15:00;9.50;90.00
25440;DHT22;13365;52.208;5.488;2023-04-03T08:17:26;9.90;89.10
25440;DHT22;13365;52.208;5.488;2023-04-03T08:19:52;10.10;87.70
25440;DHT22;13365;52.208;5.488;2023-04-03T08:22:17;10.10;85.50
25440;DHT22;13365;52.208;5.488;2023-04-03T08:24:43;10.30;84.40
25440;DHT22;13365;52.208;5.488;2023-04-03T08:27:08;10.50;85.30
25440;DHT22;13365;52.208;5.488;2023-04-03T08:29:34;10.80;84.70
25440;DHT22;13365;52.208;5.488;2023-04-03T08:31:59;11.20;81.10
25440;DHT22;13365;52.208;5.488;2023-04-03T08:34:25;10.60;76.30
25440;DHT22;13365;52.208;5.488;2023-04-03T08:36:51;10.40;78.10
25440;DHT22;13365;52.208;5.488;2023-04-03T08:39:16;10.10;77.10
25440;DHT22;13365;52.208;5.488;2023-04-03T08:41:44;9.80;77.70
25440;DHT22;13365;52.208;5.488;2023-04-03T08:46:45;9.70;75.90
25440;DHT22;13365;52.208;5.488;2023-04-03T08:49:32;9.60;77.10
25440;DHT22;13365;52.208;5.488;2023-04-03T08:52:03;9.70;74.70
25440;DHT22;13365;52.208;5.488;2023-04-03T08:54:58;10.10;81.40
25440;DHT22;13365;52.208;5.488;2023-04-03T08:57:39;10.90;81.20
25440;DHT22;13365;52.208;5.488;2023-04-03T09:02:47;11.70;75.60
25440;DHT22;13365;52.208;5.488;2023-04-03T09:05:18;11.30;69.90
25440;DHT22;13365;52.208;5.488;2023-04-03T09:07:46;10.90;69.20
25440;DHT22;13365;52.208;5.488;2023-04-03T09:10:14;11.10;70.80
25440;DHT22;13365;52.208;5.488;2023-04-03T09:12:53;11.00;71.10
25440;DHT22;13365;52.208;5.488;2023-04-03T09:15:23;11.00;69.30
25440;DHT22;13365;52.208;5.488;2023-04-03T09:18:05;10.90;70.30
25440;DHT22;13365;52.208;5.488;2023-04-03T09:25:51;11.90;70.20
25440;DHT22;13365;52.208;5.488;2023-04-03T09:28:18;12.30;66.50
25440;DHT22;13365;52.208;5.488;2023-04-03T09:30:44;12.40;60.40
25440;DHT22;13365;52.208;5.488;2023-04-03T09:33:10;12.60;65.20
25440;DHT22;13365;52.208;5.488;2023-04-03T09:35:37;12.60;60.80
25440;DHT22;13365;52.208;5.488;2023-04-03T09:40:49;12.50;56.40
25440;DHT22;13365;52.208;5.488;2023-04-03T09:43:25;12.40;56.10
25440;DHT22;13365;52.208;5.488;2023-04-03T09:45:52;12.80;59.50
25440;DHT22;13365;52.208;5.488;2023-04-03T09:48:21;12.90;59.30
25440;DHT22;13365;52.208;5.488;2023-04-03T09:53:38;12.50;57.50
25440;DHT22;13365;52.208;5.488;2023-04-03T09:56:19;12.80;57.80
25440;DHT22;13365;52.208;5.488;2023-04-03T10:01:32;12.80;56.10
25440;DHT22;13365;52.208;5.488;2023-04-03T10:04:12;12.70;57.80
25440;DHT22;13365;52.208;5.488;2023-04-03T10:07:48;12.60;59.40
25440;DHT22;13365;52.208;5.488;2023-04-03T10:09:57;12.50;56.60
25440;DHT22;13365;52.208;5.488;2023-04-03T10:12:23;12.10;56.00
25440;DHT22;13365;52.208;5.488;2023-04-03T10:15:01;12.00;57.70
25440;DHT22;13365;52.208;5.488;2023-04-03T10:20:43;12.60;60.80
25440;DHT22;13365;52.208;5.488;2023-04-03T10:23:27;12.50;57.80
25440;DHT22;13365;52.208;5.488;2023-04-03T10:29:10;12.50;58.80
25440;DHT22;13365;52.208;5.488;2023-04-03T10:34:28;13.00;57.10
25440;DHT22;13365;52.208;5.488;2023-04-03T10:37:30;12.90;55.10
25440;DHT22;13365;52.208;5.488;2023-04-03T10:42:53;13.10;60.00
25440;DHT22;13365;52.208;5.488;2023-04-03T10:45:48;13.50;58.80
25440;DHT22;13365;52.208;5.488;2023-04-03T10:56:51;13.00;58.90
25440;DHT22;13365;52.208;5.488;2023-04-03T11:04:44;14.20;57.30
25440;DHT22;13365;52.208;5.488;2023-04-03T11:07:17;14.20;56.50
25440;DHT22;13365;52.208;5.488;2023-04-03T11:09:46;14.30;56.00
25440;DHT22;13365;52.208;5.488;2023-04-03T11:12:44;14.00;54.30
25440;DHT22;13365;52.208;5.488;2023-04-03T11:15:15;14.10;57.70
25440;DHT22;13365;52.208;5.488;2023-04-03T11:17:46;14.00;56.30
25440;DHT22;13365;52.208;5.488;2023-04-03T11:20:30;13.80;55.30
25440;DHT22;13365;52.208;5.488;2023-04-03T11:23:04;13.60;55.90
25440;DHT22;13365;52.208;5.488;2023-04-03T11:25:33;13.70;56.80
25440;DHT22;13365;52.208;5.488;2023-04-03T11:28:02;13.40;55.50
25440;DHT22;13365;52.208;5.488;2023-04-03T11:30:34;13.50;55.70
25440;DHT22;13365;52.208;5.488;2023-04-03T11:35:45;13.20;56.30
25440;DHT22;13365;52.208;5.488;2023-04-03T11:38:33;13.40;57.00
25440;DHT22;13365;52.208;5.488;2023-04-03T11:41:03;13.80;59.00
25440;DHT22;13365;52.208;5.488;2023-04-03T11:43:32;14.10;58.00
25440;DHT22;13365;52.208;5.488;2023-04-03T11:46:03;14.20;57.30
25440;DHT22;13365;52.208;5.488;2023-04-03T11:48:49;14.60;56.30
25440;DHT22;13365;52.208;5.488;2023-04-03T11:53:46;14.60;56.60
25440;DHT22;13365;52.208;5.488;2023-04-03T12:01:52;13.60;57.10
25440;DHT22;13365;52.208;5.488;2023-04-03T12:04:21;13.50;55.80
25440;DHT22;13365;52.208;5.488;2023-04-03T12:11:50;13.80;56.90
25440;DHT22;13365;52.208;5.488;2023-04-03T12:14:16;14.00;55.60
25440;DHT22;13365;52.208;5.488;2023-04-03T12:16:42;14.20;56.90
25440;DHT22;13365;52.208;5.488;2023-04-03T12:19:33;14.60;57.00
25440;DHT22;13365;52.208;5.488;2023-04-03T12:24:33;15.20;53.80
25440;DHT22;13365;52.208;5.488;2023-04-03T12:27:24;15.30;54.90
25440;DHT22;13365;52.208;5.488;2023-04-03T12:29:55;14.70;50.60
25440;DHT22;13365;52.208;5.488;2023-04-03T12:35:30;14.80;56.40
25440;DHT22;13365;52.208;5.488;2023-04-03T12:38:21;15.20;57.20
25440;DHT22;13365;52.208;5.488;2023-04-03T12:41:51;15.60;56.80
25440;DHT22;13365;52.208;5.488;2023-04-03T12:44:17;15.40;54.50
25440;DHT22;13365;52.208;5.488;2023-04-03T12:46:48;15.10;54.70
25440;DHT22;13365;52.208;5.488;2023-04-03T12:51:51;14.30;53.80
25440;DHT22;13365;52.208;5.488;2023-04-03T12:54:34;14.50;56.00
25440;DHT22;13365;52.208;5.488;2023-04-03T12:57:20;14.70;56.50
25440;DHT22;13365;52.208;5.488;2023-04-03T12:59:46;15.20;56.10
25440;DHT22;13365;52.208;5.488;2023-04-03T13:02:27;15.50;57.00
25440;DHT22;13365;52.208;5.488;2023-04-03T13:04:55;15.90;56.30
25440;DHT22;13365;52.208;5.488;2023-04-03T13:07:29;15.80;54.20
25440;DHT22;13365;52.208;5.488;2023-04-03T13:10:17;15.90;54.50
25440;DHT22;13365;52.208;5.488;2023-04-03T13:12:51;15.50;54.30
25440;DHT22;13365;52.208;5.488;2023-04-03T13:15:20;15.40;54.60
25440;DHT22;13365;52.208;5.488;2023-04-03T13:17:46;15.20;54.10
25440;DHT22;13365;52.208;5.488;2023-04-03T13:20:26;15.30;54.30
25440;DHT22;13365;52.208;5.488;2023-04-03T13:23:07;14.70;54.00
25440;DHT22;13365;52.208;5.488;2023-04-03T13:25:36;15.10;57.40
25440;DHT22;13365;52.208;5.488;2023-04-03T13:28:06;15.30;55.80
25440;DHT22;13365;52.208;5.488;2023-04-03T13:30:34;15.10;54.80
25440;DHT22;13365;52.208;5.488;2023-04-03T13:33:05;14.80;55.60
25440;DHT22;13365;52.208;5.488;2023-04-03T13:35:32;14.60;55.30
25440;DHT22;13365;52.208;5.488;2023-04-03T13:38:06;14.70;54.30
25440;DHT22;13365;52.208;5.488;2023-04-03T13:40:32;14.90;56.10
25440;DHT22;13365;52.208;5.488;2023-04-03T13:43:16;14.80;56.70
25440;DHT22;13365;52.208;5.488;2023-04-03T13:45:58;14.90;55.90
25440;DHT22;13365;52.208;5.488;2023-04-03T13:48:24;15.20;55.60
25440;DHT22;13365;52.208;5.488;2023-04-03T13:51:04;14.90;53.50
25440;DHT22;13365;52.208;5.488;2023-04-03T13:53:33;13.90;52.30
25440;DHT22;13365;52.208;5.488;2023-04-03T13:56:09;13.10;53.00
25440;DHT22;13365;52.208;5.488;2023-04-03T13:58:35;13.20;57.60
25440;DHT22;13365;52.208;5.488;2023-04-03T14:01:14;13.00;57.20
25440;DHT22;13365;52.208;5.488;2023-04-03T14:03:51;13.00;57.50
25440;DHT22;13365;52.208;5.488;2023-04-03T14:06:18;13.50;58.90
25440;DHT22;13365;52.208;5.488;2023-04-03T14:08:45;13.70;59.20
25440;DHT22;13365;52.208;5.488;2023-04-03T14:11:19;13.80;57.10
25440;DHT22;13365;52.208;5.488;2023-04-03T14:13:46;14.00;58.10
25440;DHT22;13365;52.208;5.488;2023-04-03T14:16:15;14.50;58.50
25440;DHT22;13365;52.208;5.488;2023-04-03T14:18:42;14.50;59.10
25440;DHT22;13365;52.208;5.488;2023-04-03T14:21:13;13.90;54.40
25440;DHT22;13365;52.208;5.488;2023-04-03T14:23:39;13.50;55.70
25440;DHT22;13365;52.208;5.488;2023-04-03T14:26:10;13.30;58.00
25440;DHT22;13365;52.208;5.488;2023-04-03T14:28:37;13.30;57.20
25440;DHT22;13365;52.208;5.488;2023-04-03T14:31:02;13.70;59.80
25440;DHT22;13365;52.208;5.488;2023-04-03T14:33:28;13.90;55.80
25440;DHT22;13365;52.208;5.488;2023-04-03T14:35:56;14.20;54.70
25440;DHT22;13365;52.208;5.488;2023-04-03T14:38:25;14.40;55.50
25440;DHT22;13365;52.208;5.488;2023-04-03T14:40:51;14.90;57.80
25440;DHT22;13365;52.208;5.488;2023-04-03T14:43:17;15.70;56.50
25440;DHT22;13365;52.208;5.488;2023-04-03T14:45:45;16.10;53.40
25440;DHT22;13365;52.208;5.488;2023-04-03T14:48:23;15.70;53.30
25440;DHT22;13365;52.208;5.488;2023-04-03T14:50:50;15.10;52.80
25440;DHT22;13365;52.208;5.488;2023-04-03T14:53:16;14.60;53.70
25440;DHT22;13365;52.208;5.488;2023-04-03T14:55:45;13.80;56.20
25440;DHT22;13365;52.208;5.488;2023-04-03T14:58:19;13.30;57.80
25440;DHT22;13365;52.208;5.488;2023-04-03T15:00:45;12.60;57.10
25440;DHT22;13365;52.208;5.488;2023-04-03T15:03:21;12.50;58.70
25440;DHT22;13365;52.208;5.488;2023-04-03T15:05:49;12.50;59.50
25440;DHT22;13365;52.208;5.488;2023-04-03T15:10:44;12.40;57.60
25440;DHT22;13365;52.208;5.488;2023-04-03T15:13:12;12.50;57.40
25440;DHT22;13365;52.208;5.488;2023-04-03T15:15:37;12.80;58.30
25440;DHT22;13365;52.208;5.488;2023-04-03T15:18:03;12.50;58.00
25440;DHT22;13365;52.208;5.488;2023-04-03T15:20:30;12.50;58.70
25440;DHT22;13365;52.208;5.488;2023-04-03T15:22:56;12.60;58.80
25440;DHT22;13365;52.208;5.488;2023-04-03T15:25:23;12.40;57.30
25440;DHT22;13365;52.208;5.488;2023-04-03T15:27:49;12.60;58.10
25440;DHT22;13365;52.208;5.488;2023-04-03T15:30:17;12.80;58.20
25440;DHT22;13365;52.208;5.488;2023-04-03T15:32:44;13.00;57.20
25440;DHT22;13365;52.208;5.488;2023-04-03T15:35:09;13.00;57.60
25440;DHT22;13365;52.208;5.488;2023-04-03T15:37:35;12.90;56.70
25440;DHT22;13365;52.208;5.488;2023-04-03T15:40:00;13.20;60.20
25440;DHT22;13365;52.208;5.488;2023-04-03T15:42:26;13.90;59.00
25440;DHT22;13365;52.208;5.488;2023-04-03T15:44:52;14.70;57.40
25440;DHT22;13365;52.208;5.488;2023-04-03T15:47:17;15.20;55.60
25440;DHT22;13365;52.208;5.488;2023-04-03T15:49:43;15.80;57.00
25440;DHT22;13365;52.208;5.488;2023-04-03T15:52:09;16.50;55.40
25440;DHT22;13365;52.208;5.488;2023-04-03T15:54:34;16.40;52.40
25440;DHT22;13365;52.208;5.488;2023-04-03T15:57:00;16.30;53.50
25440;DHT22;13365;52.208;5.488;2023-04-03T15:59:25;16.30;53.90
25440;DHT22;13365;52.208;5.488;2023-04-03T16:01:52;16.40;53.30
25440;DHT22;13365;52.208;5.488;2023-04-03T16:04:18;16.90;53.40
25440;DHT22;13365;52.208;5.488;2023-04-03T16:06:45;17.00;52.70
25440;DHT22;13365;52.208;5.488;2023-04-03T16:09:11;17.10;52.10
25440;DHT22;13365;52.208;5.488;2023-04-03T16:11:37;16.90;52.00
25440;DHT22;13365;52.208;5.488;2023-04-03T16:14:08;16.70;50.80
25440;DHT22;13365;52.208;5.488;2023-04-03T16:16:33;16.50;52.60
25440;DHT22;13365;52.208;5.488;2023-04-03T16:19:00;16.70;52.40
25440;DHT22;13365;52.208;5.488;2023-04-03T16:21:26;16.20;50.60
25440;DHT22;13365;52.208;5.488;2023-04-03T16:23:53;15.90;53.70
25440;DHT22;13365;52.208;5.488;2023-04-03T16:26:18;16.10;53.70
25440;DHT22;13365;52.208;5.488;2023-04-03T16:28:45;16.50;52.40
25440;DHT22;13365;52.208;5.488;2023-04-03T16:31:10;16.80;52.30
25440;DHT22;13365;52.208;5.488;2023-04-03T16:33:36;17.20;53.00
25440;DHT22;13365;52.208;5.488;2023-04-03T16:36:03;18.00;52.50
25440;DHT22;13365;52.208;5.488;2023-04-03T16:38:29;18.80;52.50
25440;DHT22;13365;52.208;5.488;2023-04-03T16:40:54;19.10;49.70
25440;DHT22;13365;52.208;5.488;2023-04-03T16:43:24;19.40;49.60
25440;DHT22;13365;52.208;5.488;2023-04-03T16:45:50;19.70;48.70
25440;DHT22;13365;52.208;5.488;2023-04-03T16:48:16;20.00;47.20
25440;DHT22;13365;52.208;5.488;2023-04-03T16:50:41;19.70;46.70
25440;DHT22;13365;52.208;5.488;2023-04-03T16:53:07;18.50;46.20
25440;DHT22;13365;52.208;5.488;2023-04-03T16:55:35;17.00;50.30
25440;DHT22;13365;52.208;5.488;2023-04-03T16:58:01;15.60;51.00
25440;DHT22;13365;52.208;5.488;2023-04-03T17:00:30;15.30;53.90
25440;DHT22;13365;52.208;5.488;2023-04-03T17:02:55;15.00;55.40
25440;DHT22;13365;52.208;5.488;2023-04-03T17:05:21;14.60;55.10